createdAt,value
2023-05-05T00:01:02.228Z,38.69
2023-05-05T00:03:29.986Z,38.52
2023-05-05T00:05:57.972Z,38.54
2023-05-05T00:08:25.682Z,38.61
2023-05-05T00:10:53.832Z,38.35
2023-05-05T00:13:22.020Z,38.19
2023-05-05T00:15:52.431Z,38.12
2023-05-05T00:18:20.999Z,37.96
2023-05-05T00:20:49.029Z,38.33
2023-05-05T00:23:17.481Z,38.12
2023-05-05T00:25:45.007Z,38.09
2023-05-05T00:28:14.001Z,38.00
2023-05-05T00:30:41.783Z,38.22
2023-05-05T00:33:11.045Z,38.28
2023-05-05T00:35:38.649Z,38.09
2023-05-05T00:38:06.937Z,38.12
2023-05-05T00:40:34.449Z,38.17
2023-05-05T00:43:02.616Z,38.12
2023-05-05T00:45:30.756Z,38.33
2023-05-05T00:48:00.608Z,38.19
2023-05-05T00:50:30.618Z,38.25
2023-05-05T00:53:02.944Z,38.22
2023-05-05T00:55:31.746Z,38.42
2023-05-05T00:58:01.084Z,38.45
2023-05-05T01:00:29.932Z,38.47
2023-05-05T01:02:57.829Z,38.74
2023-05-05T01:05:27.541Z,38.79
2023-05-05T01:08:05.599Z,38.82
2023-05-05T01:10:51.007Z,38.69
2023-05-05T01:13:55.211Z,38.38
2023-05-05T01:16:31.027Z,38.78
2023-05-05T01:19:45.711Z,38.82
2023-05-05T01:22:18.283Z,39.21
2023-05-05T01:25:33.671Z,39.13
2023-05-05T01:28:36.110Z,39.09
2023-05-05T01:31:57.642Z,39.31
2023-05-05T01:34:32.093Z,39.36
2023-05-05T01:37:11.448Z,39.53
2023-05-05T01:39:42.705Z,39.82
2023-05-05T01:42:14.982Z,39.81
2023-05-05T01:44:44.720Z,39.60
2023-05-05T01:47:16.631Z,39.49
2023-05-05T01:49:47.367Z,39.84
2023-05-05T01:52:16.238Z,39.71
2023-05-05T01:54:46.649Z,39.97
2023-05-05T01:57:15.421Z,39.52
2023-05-05T01:59:43.031Z,39.87
2023-05-05T02:02:12.922Z,39.42
2023-05-05T02:04:43.564Z,39.78
2023-05-05T02:07:13.589Z,39.90
2023-05-05T02:09:43.980Z,39.83
2023-05-05T02:12:12.401Z,40.13
2023-05-05T02:14:42.807Z,40.01
2023-05-05T02:17:11.498Z,39.92
2023-05-05T02:19:42.940Z,40.21
2023-05-05T02:22:12.232Z,40.38
2023-05-05T02:24:39.780Z,40.08
2023-05-05T02:27:08.716Z,40.39
2023-05-05T02:29:46.805Z,40.63
2023-05-05T02:32:42.731Z,40.41
2023-05-05T02:35:29.810Z,40.52
2023-05-05T02:38:05.551Z,40.77
2023-05-05T02:40:41.940Z,40.95
2023-05-05T02:43:16.679Z,40.76
2023-05-05T02:45:44.396Z,40.86
2023-05-05T02:48:13.058Z,40.81
2023-05-05T02:50:40.764Z,40.99
2023-05-05T02:53:26.158Z,40.88
2023-05-05T02:56:23.369Z,40.96
2023-05-05T02:59:07.652Z,41.06
2023-05-05T03:02:02.433Z,41.50
2023-05-05T03:04:46.969Z,41.46
2023-05-05T03:07:27.526Z,41.92
2023-05-05T03:10:14.847Z,42.05
2023-05-05T03:12:53.367Z,42.36
2023-05-05T03:15:32.150Z,42.60
2023-05-05T03:18:03.980Z,42.78
2023-05-05T03:20:31.995Z,42.90
2023-05-05T03:23:05.103Z,42.55
2023-05-05T03:25:50.161Z,43.17
2023-05-05T03:28:30.916Z,42.89
2023-05-05T03:31:02.391Z,43.03
2023-05-05T03:33:32.510Z,43.04
2023-05-05T03:36:01.423Z,43.22
2023-05-05T03:38:29.140Z,43.48
2023-05-05T03:40:56.692Z,44.27
2023-05-05T03:43:26.914Z,43.81
2023-05-05T03:45:54.521Z,43.74
2023-05-05T03:48:23.301Z,44.13
2023-05-05T03:50:52.917Z,44.21
2023-05-05T03:53:22.320Z,44.30
2023-05-05T03:55:50.148Z,44.07
2023-05-05T03:58:17.825Z,44.24
2023-05-05T04:00:45.422Z,44.18
2023-05-05T04:03:14.457Z,44.07
2023-05-05T04:05:43.297Z,44.03
2023-05-05T04:08:10.908Z,44.23
2023-05-05T04:10:38.471Z,43.99
2023-05-05T04:13:06.200Z,44.06
2023-05-05T04:15:34.287Z,44.16
2023-05-05T04:18:02.423Z,44.22
2023-05-05T04:20:30.169Z,44.23
2023-05-05T04:22:58.316Z,44.44
2023-05-05T04:25:25.910Z,44.25
2023-05-05T04:27:53.656Z,44.27
2023-05-05T04:30:21.235Z,44.30
2023-05-05T04:32:48.918Z,44.34
2023-05-05T04:35:17.014Z,44.32
2023-05-05T04:37:44.939Z,44.50
2023-05-05T04:40:13.075Z,44.16
2023-05-05T04:42:41.572Z,44.77
2023-05-05T04:45:09.766Z,44.47
2023-05-05T04:47:41.420Z,44.78
2023-05-05T04:50:11.238Z,44.52
2023-05-05T04:52:40.128Z,44.78
2023-05-05T04:55:10.557Z,44.73
2023-05-05T04:57:38.097Z,44.48
2023-05-05T05:00:07.600Z,44.85
2023-05-05T05:02:37.484Z,44.84
2023-05-05T05:05:05.503Z,44.56
2023-05-05T05:07:33.133Z,44.68
2023-05-05T05:10:00.724Z,44.72
2023-05-05T05:12:28.338Z,45.00
2023-05-05T05:14:55.834Z,44.98
2023-05-05T05:17:24.038Z,44.84
2023-05-05T05:19:51.745Z,44.79
2023-05-05T05:22:19.247Z,44.81
2023-05-05T05:24:46.825Z,44.92
2023-05-05T05:27:14.702Z,45.09
2023-05-05T05:29:45.496Z,44.81
2023-05-05T05:32:13.068Z,45.11
2023-05-05T05:34:40.692Z,45.41
2023-05-05T05:37:09.881Z,45.10
2023-05-05T05:39:39.424Z,45.05
2023-05-05T05:42:08.783Z,45.21
2023-05-05T05:44:36.553Z,45.06
2023-05-05T05:47:04.244Z,45.12
2023-05-05T05:49:31.783Z,45.16
2023-05-05T05:51:59.366Z,44.91
2023-05-05T05:54:26.980Z,45.44
2023-05-05T05:56:54.557Z,45.76
2023-05-05T05:59:22.180Z,45.88
2023-05-05T06:01:49.725Z,46.12
2023-05-05T06:04:17.528Z,46.06
2023-05-05T06:06:45.120Z,46.60
2023-05-05T06:09:12.857Z,46.28
2023-05-05T06:11:40.459Z,46.20
2023-05-05T06:14:08.291Z,46.01
2023-05-05T06:16:35.797Z,45.76
2023-05-05T06:19:09.572Z,45.58
2023-05-05T06:21:37.706Z,45.32
2023-05-05T06:24:05.577Z,44.93
2023-05-05T06:26:34.170Z,44.94
2023-05-05T06:29:01.897Z,44.84
2023-05-05T06:31:29.430Z,44.91
2023-05-05T06:33:56.987Z,45.63
2023-05-05T06:36:24.578Z,45.07
2023-05-05T06:38:52.117Z,44.74
2023-05-05T06:41:19.697Z,44.98
2023-05-05T06:43:47.195Z,45.01
2023-05-05T06:46:15.353Z,45.04
2023-05-05T06:48:42.896Z,44.69
2023-05-05T06:51:10.406Z,45.00
2023-05-05T06:53:37.890Z,44.92
2023-05-05T06:56:05.926Z,44.88
2023-05-05T06:58:33.450Z,44.67
2023-05-05T07:01:01.054Z,44.73
2023-05-05T07:03:28.672Z,44.74
2023-05-05T07:05:56.433Z,44.36
2023-05-05T07:08:24.877Z,44.38
2023-05-05T07:10:52.387Z,44.83
2023-05-05T07:13:20.018Z,44.54
2023-05-05T07:15:47.621Z,44.02
2023-05-05T07:18:16.498Z,44.26
2023-05-05T07:20:44.660Z,44.33
2023-05-05T07:23:12.764Z,43.72
2023-05-05T07:25:40.342Z,43.60
2023-05-05T07:28:07.896Z,43.96
2023-05-05T07:30:35.439Z,43.83
2023-05-05T07:33:03.549Z,44.04
2023-05-05T07:35:31.106Z,44.08
2023-05-05T07:37:58.599Z,43.83
2023-05-05T07:40:26.252Z,44.24
2023-05-05T07:42:53.911Z,43.75
2023-05-05T07:45:21.610Z,43.86
2023-05-05T07:47:49.212Z,43.42
2023-05-05T07:50:17.037Z,43.53
2023-05-05T07:52:50.007Z,43.37
2023-05-05T07:55:23.804Z,43.78
2023-05-05T07:57:51.355Z,43.79
2023-05-05T08:00:19.473Z,43.62
2023-05-05T08:02:47.875Z,43.60
2023-05-05T08:05:16.409Z,43.25
2023-05-05T08:07:43.995Z,42.88
2023-05-05T08:10:12.608Z,43.03
2023-05-05T08:12:40.643Z,43.03
2023-05-05T08:15:08.964Z,42.64
2023-05-05T08:17:51.521Z,42.90
2023-05-05T08:20:21.205Z,42.88
2023-05-05T08:22:49.505Z,42.34
2023-05-05T08:25:17.017Z,42.76
2023-05-05T08:27:45.532Z,42.86
2023-05-05T08:30:13.443Z,42.86
2023-05-05T08:32:41.231Z,42.67
2023-05-05T08:35:09.454Z,42.66
2023-05-05T08:37:37.242Z,42.52
2023-05-05T08:40:06.157Z,42.49
2023-05-05T08:42:38.732Z,42.54
2023-05-05T08:45:10.899Z,42.45
2023-05-05T08:47:39.559Z,41.98
2023-05-05T08:50:10.999Z,41.69
2023-05-05T08:52:43.565Z,42.29
2023-05-05T08:55:24.024Z,41.85
2023-05-05T08:57:58.207Z,41.81
2023-05-05T09:00:27.181Z,41.58
2023-05-05T09:02:58.198Z,41.31
2023-05-05T09:05:27.132Z,41.54
2023-05-05T09:07:54.820Z,41.55
2023-05-05T09:10:22.566Z,41.19
2023-05-05T09:12:51.584Z,41.07
2023-05-05T09:15:19.277Z,40.91
2023-05-05T09:17:47.167Z,40.56
2023-05-05T09:20:15.487Z,40.75
2023-05-05T09:22:46.073Z,40.89
2023-05-05T09:25:16.175Z,40.95
2023-05-05T09:27:49.116Z,41.05
2023-05-05T09:30:24.865Z,40.90
2023-05-05T09:32:54.802Z,40.84
2023-05-05T09:35:23.352Z,40.99
2023-05-05T09:37:50.960Z,40.88
2023-05-05T09:40:20.226Z,41.26
2023-05-05T09:42:48.266Z,41.43
2023-05-05T09:45:18.540Z,41.77
2023-05-05T09:47:47.336Z,41.87
2023-05-05T09:50:18.566Z,42.09
2023-05-05T09:53:03.307Z,42.67
2023-05-05T09:55:31.383Z,42.78
2023-05-05T09:58:23.399Z,42.54
2023-05-05T10:00:51.500Z,42.76
2023-05-05T10:03:19.525Z,42.82
2023-05-05T10:06:01.029Z,43.09
2023-05-05T10:08:31.381Z,43.21
2023-05-05T10:11:07.239Z,43.20
2023-05-05T10:13:41.832Z,42.93
2023-05-05T10:16:11.215Z,43.10
2023-05-05T10:18:46.249Z,43.21
2023-05-05T10:21:18.067Z,43.31
2023-05-05T10:23:57.236Z,43.36
2023-05-05T10:26:27.545Z,43.07
2023-05-05T10:28:56.571Z,43.19
2023-05-05T10:31:43.423Z,43.53
2023-05-05T10:34:24.083Z,43.60
2023-05-05T10:36:52.001Z,43.26
2023-05-05T10:39:21.036Z,43.10
2023-05-05T10:41:50.033Z,43.13
2023-05-05T10:44:18.055Z,43.40
2023-05-05T10:46:46.835Z,43.54
2023-05-05T10:49:32.860Z,43.14
2023-05-05T10:52:12.063Z,43.12
2023-05-05T10:54:50.523Z,42.95
2023-05-05T10:57:22.798Z,43.43
2023-05-05T10:59:50.351Z,42.83
2023-05-05T11:02:29.609Z,43.08
2023-05-05T11:05:06.932Z,42.90
2023-05-05T11:07:34.585Z,42.98
2023-05-05T11:10:04.933Z,42.75
2023-05-05T11:12:53.707Z,42.66
2023-05-05T11:15:37.286Z,42.38
2023-05-05T11:18:07.898Z,41.46
2023-05-05T11:20:40.049Z,41.18
2023-05-05T11:23:07.524Z,40.84
2023-05-05T11:25:35.464Z,40.87
2023-05-05T11:28:31.463Z,41.07
2023-05-05T11:31:01.757Z,40.96
2023-05-05T11:33:37.674Z,40.85
2023-05-05T11:36:13.850Z,40.03
2023-05-05T11:39:24.075Z,40.06
2023-05-05T11:42:26.233Z,40.03
2023-05-05T11:44:54.605Z,39.29
2023-05-05T11:47:21.994Z,39.25
2023-05-05T11:49:50.361Z,39.23
2023-05-05T11:52:17.899Z,38.89
2023-05-05T11:54:48.603Z,39.01
2023-05-05T11:57:27.849Z,38.98
2023-05-05T12:00:08.132Z,38.53
2023-05-05T12:02:36.635Z,38.53
2023-05-05T12:05:04.883Z,38.57
2023-05-05T12:07:33.623Z,38.09
2023-05-05T12:10:01.413Z,37.92
2023-05-05T12:12:40.419Z,37.88
2023-05-05T12:15:09.745Z,38.12
2023-05-05T12:17:44.903Z,38.01
2023-05-05T12:20:13.795Z,37.57
2023-05-05T12:22:41.470Z,37.68
2023-05-05T12:25:10.652Z,37.56
2023-05-05T12:27:38.558Z,37.80
2023-05-05T12:30:18.331Z,37.37
2023-05-05T12:32:46.290Z,37.42
2023-05-05T12:35:14.486Z,37.09
2023-05-05T12:37:43.228Z,37.27
2023-05-05T12:40:48.869Z,36.93
2023-05-05T12:43:27.880Z,36.84
2023-05-05T12:46:09.020Z,37.42
2023-05-05T12:48:39.305Z,37.01
2023-05-05T12:51:16.885Z,36.31
2023-05-05T12:53:49.746Z,35.66
2023-05-05T12:56:44.156Z,35.70
2023-05-05T12:59:29.236Z,36.02
2023-05-05T13:02:02.505Z,35.85
2023-05-05T13:05:01.454Z,35.63
2023-05-05T13:07:29.017Z,35.59
2023-05-05T13:10:12.668Z,35.36
2023-05-05T13:12:40.260Z,35.43
2023-05-05T13:15:09.053Z,34.75
2023-05-05T13:17:36.774Z,34.39
2023-05-05T13:20:05.756Z,34.72
2023-05-05T13:22:33.262Z,34.03
2023-05-05T13:25:00.804Z,34.18
2023-05-05T13:27:28.402Z,34.52
2023-05-05T13:29:55.999Z,34.65
2023-05-05T13:32:23.639Z,34.44
2023-05-05T13:34:51.355Z,34.59
2023-05-05T13:37:18.946Z,34.64
2023-05-05T13:39:46.458Z,35.25
2023-05-05T13:42:13.931Z,34.88
2023-05-05T13:44:41.466Z,34.70
2023-05-05T13:47:09.150Z,35.03
2023-05-05T13:49:36.920Z,34.87
2023-05-05T13:52:04.586Z,35.22
2023-05-05T13:54:32.231Z,35.48
2023-05-05T13:56:59.971Z,35.74
2023-05-05T13:59:28.161Z,35.62
2023-05-05T14:01:55.886Z,35.81
2023-05-05T14:04:23.436Z,35.91
2023-05-05T14:06:50.976Z,36.25
2023-05-05T14:09:18.548Z,37.00
2023-05-05T14:11:46.034Z,37.00
2023-05-05T14:14:13.582Z,36.87
2023-05-05T14:16:41.152Z,36.96
2023-05-05T14:19:08.708Z,37.08
2023-05-05T14:21:36.417Z,37.10
2023-05-05T14:24:04.121Z,36.40
2023-05-05T14:26:31.690Z,35.20
2023-05-05T14:28:59.246Z,34.89
2023-05-05T14:31:26.822Z,34.43
2023-05-05T14:33:54.457Z,34.68
2023-05-05T14:36:21.929Z,35.00
2023-05-05T14:38:49.637Z,35.05
2023-05-05T14:41:17.200Z,34.72
2023-05-05T14:43:44.777Z,34.63
2023-05-05T14:46:12.386Z,34.72
2023-05-05T14:48:40.079Z,34.74
2023-05-05T14:51:07.801Z,35.44
2023-05-05T14:53:35.799Z,35.99
2023-05-05T14:56:03.402Z,35.99
2023-05-05T14:58:30.984Z,35.96
2023-05-05T15:00:58.904Z,35.79
2023-05-05T15:03:27.136Z,36.10
2023-05-05T15:05:54.759Z,36.21
2023-05-05T15:08:22.481Z,36.56
2023-05-05T15:10:50.010Z,36.47
2023-05-05T15:13:18.392Z,36.25
2023-05-05T15:15:45.995Z,36.68
2023-05-05T15:18:13.524Z,36.60
2023-05-05T15:20:41.021Z,36.36
2023-05-05T15:23:08.691Z,36.54
2023-05-05T15:25:36.510Z,36.50
2023-05-05T15:28:04.180Z,36.60
2023-05-05T15:30:31.766Z,36.74
2023-05-05T15:32:59.420Z,37.24
2023-05-05T15:35:27.022Z,36.83
2023-05-05T15:37:54.753Z,37.91
2023-05-05T15:40:22.569Z,37.96
2023-05-05T15:42:50.107Z,38.24
2023-05-05T15:45:17.849Z,38.10
2023-05-05T15:47:46.108Z,37.84
2023-05-05T15:50:14.201Z,38.49
2023-05-05T15:52:41.906Z,39.55
2023-05-05T15:55:10.832Z,40.43
2023-05-05T15:57:41.330Z,40.98
2023-05-05T16:00:09.741Z,41.23
2023-05-05T16:02:38.146Z,41.30
2023-05-05T16:05:06.658Z,41.44
2023-05-05T16:07:34.385Z,42.09
2023-05-05T16:10:02.073Z,42.65
2023-05-05T16:12:29.729Z,43.83
2023-05-05T16:14:57.318Z,44.02
2023-05-05T16:17:24.867Z,44.44
2023-05-05T16:19:52.365Z,45.62
2023-05-05T16:22:20.940Z,46.64
2023-05-05T16:24:48.457Z,47.65
2023-05-05T16:27:16.431Z,49.69
2023-05-05T16:29:43.937Z,51.39
2023-05-05T16:32:12.270Z,54.80
2023-05-05T16:34:39.790Z,54.78
2023-05-05T16:37:07.318Z,55.83
2023-05-05T16:39:40.389Z,54.82
2023-05-05T16:42:08.079Z,56.87
2023-05-05T16:44:35.630Z,57.44
2023-05-05T16:47:03.196Z,57.46
2023-05-05T16:49:30.692Z,57.03
2023-05-05T16:51:58.255Z,56.96
2023-05-05T16:54:25.770Z,57.46
2023-05-05T16:56:53.719Z,56.93
2023-05-05T16:59:21.208Z,57.09
2023-05-05T17:01:48.737Z,56.59
2023-05-05T17:04:16.456Z,55.96
2023-05-05T17:06:44.001Z,56.37
2023-05-05T17:09:11.517Z,56.23
2023-05-05T17:11:39.067Z,56.86
2023-05-05T17:14:06.585Z,55.86
2023-05-05T17:16:34.348Z,56.61
2023-05-05T17:19:01.908Z,57.02
2023-05-05T17:21:29.419Z,56.61
2023-05-05T17:23:57.299Z,57.04
2023-05-05T17:26:24.979Z,56.81
2023-05-05T17:28:52.460Z,56.93
2023-05-05T17:31:19.978Z,57.69
2023-05-05T17:33:47.550Z,57.93
2023-05-05T17:36:15.089Z,58.15
2023-05-05T17:38:42.618Z,58.64
2023-05-05T17:41:10.778Z,58.12
2023-05-05T17:43:38.389Z,57.65
2023-05-05T17:46:05.942Z,57.90
2023-05-05T17:48:33.511Z,58.59
2023-05-05T17:51:01.260Z,57.75
2023-05-05T17:53:28.731Z,58.42
2023-05-05T17:55:56.292Z,58.07
2023-05-05T17:58:23.911Z,57.93
2023-05-05T18:00:51.395Z,57.65
2023-05-05T18:03:19.117Z,57.29
2023-05-05T18:05:46.818Z,57.02
2023-05-05T18:08:14.344Z,56.75
2023-05-05T18:10:42.359Z,57.40
2023-05-05T18:13:09.896Z,56.93
2023-05-05T18:15:37.432Z,57.04
2023-05-05T18:18:05.117Z,56.73
2023-05-05T18:20:32.644Z,56.48
2023-05-05T18:23:00.153Z,56.85
2023-05-05T18:25:27.639Z,56.79
2023-05-05T18:27:55.201Z,56.77
2023-05-05T18:30:22.755Z,56.83
2023-05-05T18:32:50.374Z,56.77
2023-05-05T18:35:18.047Z,56.81
2023-05-05T18:37:45.566Z,57.36
2023-05-05T18:40:13.423Z,57.49
2023-05-05T18:42:41.532Z,57.25
2023-05-05T18:45:10.522Z,57.76
2023-05-05T18:47:39.284Z,57.36
2023-05-05T18:50:08.306Z,57.69
2023-05-05T18:52:35.874Z,57.94
2023-05-05T18:55:03.800Z,58.08
2023-05-05T18:57:31.304Z,58.28
2023-05-05T18:59:58.939Z,58.42
2023-05-05T19:02:26.927Z,58.34
2023-05-05T19:04:54.480Z,58.33
2023-05-05T19:07:33.960Z,58.76
2023-05-05T19:10:04.686Z,58.75
2023-05-05T19:12:32.260Z,58.19
2023-05-05T19:14:59.785Z,58.78
2023-05-05T19:17:27.606Z,58.42
2023-05-05T19:19:55.556Z,58.60
2023-05-05T19:22:23.865Z,58.93
2023-05-05T19:24:51.413Z,59.13
2023-05-05T19:27:19.056Z,59.30
2023-05-05T19:29:51.778Z,59.19
2023-05-05T19:32:20.897Z,59.26
2023-05-05T19:34:48.784Z,59.35
2023-05-05T19:37:16.318Z,59.50
2023-05-05T19:39:45.523Z,59.03
2023-05-05T19:42:13.126Z,58.97
2023-05-05T19:44:40.687Z,58.66
2023-05-05T19:47:09.017Z,58.71
2023-05-05T19:49:37.841Z,58.74
2023-05-05T19:52:05.537Z,58.98
2023-05-05T19:54:33.018Z,59.28
2023-05-05T19:57:00.713Z,58.96
2023-05-05T19:59:29.170Z,59.48
2023-05-05T20:01:56.804Z,59.41
2023-05-05T20:04:24.354Z,59.90
2023-05-05T20:06:51.930Z,59.83
2023-05-05T20:09:19.672Z,59.56
2023-05-05T20:11:47.186Z,59.51
2023-05-05T20:14:14.725Z,59.19
2023-05-05T20:16:42.220Z,59.14
2023-05-05T20:19:09.686Z,58.88
2023-05-05T20:21:37.209Z,58.76
2023-05-05T20:24:05.981Z,58.55
2023-05-05T20:26:33.739Z,58.05
2023-05-05T20:29:02.054Z,58.10
2023-05-05T20:31:29.542Z,58.00
2023-05-05T20:33:57.071Z,58.04
2023-05-05T20:36:26.543Z,58.00
2023-05-05T20:38:54.292Z,57.97
2023-05-05T20:41:21.986Z,57.77
2023-05-05T20:43:49.584Z,57.63
2023-05-05T20:46:17.174Z,57.57
2023-05-05T20:48:44.750Z,57.54
2023-05-05T20:51:12.328Z,57.35
2023-05-05T20:53:39.961Z,57.09
2023-05-05T20:56:08.846Z,57.01
2023-05-05T20:58:36.654Z,56.83
2023-05-05T21:01:04.180Z,56.80
2023-05-05T21:03:31.771Z,56.71
2023-05-05T21:05:59.335Z,56.90
2023-05-05T21:08:26.997Z,56.74
2023-05-05T21:10:54.525Z,56.51
2023-05-05T21:13:22.993Z,56.46
2023-05-05T21:15:50.683Z,56.33
2023-05-05T21:18:18.207Z,56.15
2023-05-05T21:20:45.748Z,55.94
2023-05-05T21:23:13.479Z,55.83
2023-05-05T21:25:41.044Z,55.68
2023-05-05T21:28:08.540Z,55.50
2023-05-05T21:30:36.081Z,55.53
2023-05-05T21:33:03.691Z,55.27
2023-05-05T21:35:31.281Z,55.08
2023-05-05T21:37:58.924Z,55.13
2023-05-05T21:40:26.773Z,54.91
2023-05-05T21:42:54.334Z,54.74
2023-05-05T21:45:21.888Z,54.75
2023-05-05T21:47:49.453Z,54.86
2023-05-05T21:50:16.994Z,54.44
2023-05-05T21:52:44.488Z,54.46
2023-05-05T21:55:12.053Z,54.16
2023-05-05T21:57:39.597Z,54.07
2023-05-05T22:00:08.948Z,54.05
2023-05-05T22:02:44.762Z,53.62
2023-05-05T22:05:12.423Z,53.42
2023-05-05T22:07:40.654Z,53.54
2023-05-05T22:10:09.106Z,53.62
2023-05-05T22:12:36.822Z,53.28
2023-05-05T22:15:04.948Z,53.25
2023-05-05T22:17:32.515Z,53.13
2023-05-05T22:20:00.067Z,52.99
2023-05-05T22:22:27.628Z,53.01
2023-05-05T22:24:55.251Z,52.93
2023-05-05T22:27:22.766Z,53.04
2023-05-05T22:29:50.776Z,53.07
2023-05-05T22:32:18.260Z,52.99
2023-05-05T22:34:45.774Z,53.10
2023-05-05T22:37:14.181Z,53.05
2023-05-05T22:39:41.725Z,52.96
2023-05-05T22:42:09.263Z,53.05
2023-05-05T22:44:36.753Z,53.21
2023-05-05T22:47:04.486Z,53.08
2023-05-05T22:49:32.055Z,52.97
2023-05-05T22:51:59.663Z,52.77
2023-05-05T22:54:27.170Z,52.93
2023-05-05T22:56:54.985Z,52.79
2023-05-05T22:59:22.541Z,52.76
2023-05-05T23:01:50.212Z,52.73
2023-05-05T23:04:17.775Z,52.60
2023-05-05T23:06:46.154Z,52.69
2023-05-05T23:09:13.791Z,52.67
2023-05-05T23:11:41.354Z,52.82
2023-05-05T23:14:08.811Z,52.82
2023-05-05T23:16:36.354Z,52.80
2023-05-05T23:19:03.877Z,52.85
2023-05-05T23:21:33.995Z,53.05
2023-05-05T23:24:03.982Z,52.98
2023-05-05T23:26:31.662Z,53.02
2023-05-05T23:28:59.197Z,53.30
2023-05-05T23:31:26.718Z,53.53
2023-05-05T23:33:54.274Z,53.75
2023-05-05T23:36:21.760Z,53.94
2023-05-05T23:38:49.330Z,54.27
2023-05-05T23:41:18.262Z,53.97
2023-05-05T23:43:46.757Z,53.81
2023-05-05T23:46:14.930Z,53.83
2023-05-05T23:48:42.590Z,54.34
2023-05-05T23:51:10.148Z,54.51
2023-05-05T23:53:37.671Z,55.18
2023-05-05T23:56:05.717Z,54.91
2023-05-05T23:58:33.276Z,55.45
